Time;durP1;ratioP1;P1;durP2;ratioP2;P2;SDS_P1;SDS_P2;PMS_P1;PMS_P2;Temp;Humidity;BMP_temperature;BMP_pressure;BME280_temperature;BME280_humidity;BME280_pressure;Samples;Min_cycle;Max_cycle;Signal;HPM_P1;HPM_P2
2021/07/02 00:02:39;;;;;;;31.00;27.67;;;;;;;18.21;82.01;101252.59;6243260;28;20517;-46
2021/07/02 00:06:00;;;;;;;29.77;26.80;;;;;;;18.55;80.52;101263.72;6261256;28;20228;-49
2021/07/02 00:09:20;;;;;;;27.00;24.40;;;;;;;18.61;80.00;101245.94;6232646;28;20609;-46
2021/07/02 00:12:43;;;;;;;31.00;26.00;;;;;;;19.01;78.44;101257.69;6254068;28;20224;-49
2021/07/02 00:16:05;;;;;;;26.33;23.65;;;;;;;18.89;78.38;101245.81;6244671;28;20622;-49
2021/07/02 00:19:26;;;;;;;32.88;26.60;;;;;;;18.42;80.48;101252.78;6256749;28;20224;-51
2021/07/02 00:22:46;;;;;;;30.05;27.17;;;;;;;18.54;79.85;101248.84;6263531;28;20225;-50
2021/07/02 00:26:08;;;;;;;29.58;26.45;;;;;;;18.51;80.19;101244.53;6226610;28;20314;-45
2021/07/02 00:29:30;;;;;;;30.63;27.52;;;;;;;18.76;79.24;101238.38;6241233;28;20236;-53
2021/07/02 00:32:51;;;;;;;29.45;26.42;;;;;;;18.96;77.73;101246.47;6214800;28;20279;-49
2021/07/02 00:36:12;;;;;;;28.63;25.52;;;;;;;18.99;77.71;101246.31;6241385;28;20232;-46
2021/07/02 00:39:33;;;;;;;28.55;25.40;;;;;;;18.95;77.36;101244.72;6243754;28;20236;-46
2021/07/02 00:42:54;;;;;;;28.98;24.23;;;;;;;18.86;77.75;101252.97;6250979;28;20748;-47
2021/07/02 00:46:17;;;;;;;28.58;25.48;;;;;;;18.85;77.25;101252.13;6236953;28;20673;-48
2021/07/02 00:49:39;;;;;;;27.33;24.42;;;;;;;18.93;76.62;101245.72;6259887;28;20228;-49
2021/07/02 00:53:04;;;;;;;28.40;24.05;;;;;;;19.00;76.91;101252.47;6225734;28;20227;-48
2021/07/02 00:56:25;;;;;;;33.85;26.05;;;;;;;18.67;77.93;101250.97;6243398;28;20614;-52
2021/07/02 00:59:46;;;;;;;29.08;24.58;;;;;;;18.64;77.99;101255.50;6259448;28;20232;-46
2021/07/02 01:03:13;;;;;;;26.65;24.00;;;;;;;18.29;79.09;101253.19;6265362;28;20774;-51
2021/07/02 01:06:34;;;;;;;26.40;23.50;;;;;;;18.82;77.40;101252.22;6246262;28;20231;-49
2021/07/02 01:09:56;;;;;;;28.67;25.38;;;;;;;18.86;76.71;101255.59;6227535;28;20224;-49
2021/07/02 01:13:17;;;;;;;27.30;23.55;;;;;;;18.87;76.46;101249.44;6242387;28;20231;-51
2021/07/02 01:16:39;;;;;;;29.75;24.50;;;;;;;18.78;76.50;101252.38;6254298;28;20235;-50
2021/07/02 01:20:01;;;;;;;24.98;22.08;;;;;;;18.83;76.45;101245.19;6242126;28;20617;-50
2021/07/02 01:23:31;;;;;;;24.05;21.50;;;;;;;18.83;76.11;101248.69;6251925;28;20262;-49
2021/07/02 01:26:54;;;;;;;23.00;20.50;;;;;;;18.89;75.73;101242.31;6254474;28;20246;-53
2021/07/02 01:30:18;;;;;;;26.10;22.00;;;;;;;19.00;75.17;101257.72;6240244;28;20602;-49
2021/07/02 01:33:39;;;;;;;23.98;21.15;;;;;;;18.89;75.76;101250.22;6247468;28;20621;-47
2021/07/02 01:37:01;;;;;;;20.63;16.80;;;;;;;19.05;74.80;101256.66;6230790;28;20327;-48
2021/07/02 01:40:25;;;;;;;21.50;19.17;;;;;;;19.00;74.07;101253.34;6249085;28;20389;-49
2021/07/02 01:43:47;;;;;;;19.35;17.45;;;;;;;18.53;75.57;101261.16;6240940;28;20224;-49
2021/07/02 01:47:09;;;;;;;19.98;16.63;;;;;;;18.48;75.77;101265.75;6261262;28;20260;-49
2021/07/02 01:50:32;;;;;;;22.98;16.63;;;;;;;18.77;74.68;101275.25;6237629;28;20614;-50
2021/07/02 01:53:56;;;;;;;18.02;15.27;;;;;;;18.86;74.51;101274.06;6262309;28;20322;-50
2021/07/02 01:57:23;;;;;;;21.67;16.30;;;;;;;18.82;73.82;101275.09;6281892;28;20227;-47
2021/07/02 02:00:44;;;;;;;17.00;15.38;;;;;;;18.69;74.34;101278.16;6246821;28;20608;-48
2021/07/02 02:04:11;;;;;;;17.38;15.45;;;;;;;18.16;75.51;101266.84;6222821;28;20235;-49
2021/07/02 02:07:32;;;;;;;18.77;16.77;;;;;;;18.15;75.30;101273.88;6258554;28;20323;-49
2021/07/02 02:10:54;;;;;;;21.77;15.25;;;;;;;18.41;74.48;101285.31;6248529;28;20605;-52
2021/07/02 02:14:20;;;;;;;21.75;15.93;;;;;;;18.19;74.72;101275.50;6242523;28;20227;-51
2021/07/02 02:17:45;;;;;;;17.60;15.82;;;;;;;18.41;73.50;101285.31;6250371;28;20235;-47
2021/07/02 02:21:06;;;;;;;20.00;15.55;;;;;;;18.34;73.55;101284.69;6253121;28;20240;-48
2021/07/02 02:24:28;;;;;;;17.95;15.45;;;;;;;18.21;73.84;101278.94;6257228;28;20535;-52
2021/07/02 02:27:50;;;;;;;17.30;14.85;;;;;;;18.10;73.76;101276.66;6263895;28;20226;-48
2021/07/02 02:31:12;;;;;;;17.83;14.13;;;;;;;18.12;73.42;101283.66;6225176;28;20229;-50
2021/07/02 02:34:35;;;;;;;18.65;14.20;;;;;;;18.15;73.54;101289.69;6247786;28;20236;-50
2021/07/02 02:37:57;;;;;;;20.50;15.48;;;;;;;17.86;74.05;101290.66;6246552;28;20299;-49
2021/07/02 02:41:18;;;;;;;19.20;14.20;;;;;;;17.96;73.96;101293.84;6238248;28;20260;-46
2021/07/02 02:44:39;;;;;;;17.40;14.13;;;;;;;18.04;73.43;101282.13;6237958;28;20240;-51
2021/07/02 02:48:05;;;;;;;16.13;14.35;;;;;;;18.10;73.17;101291.63;6227681;28;20232;-49
2021/07/02 02:51:25;;;;;;;17.02;14.93;;;;;;;18.19;72.66;101291.31;6247776;28;20614;-50
2021/07/02 02:54:46;;;;;;;30.55;15.20;;;;;;;18.06;73.35;101303.16;6231347;28;20228;-50
2021/07/02 02:58:08;;;;;;;18.30;15.40;;;;;;;18.08;73.36;101301.34;6203660;28;20232;-50
2021/07/02 03:01:29;;;;;;;19.15;15.98;;;;;;;18.25;72.72;101287.63;6233535;28;20228;-51
2021/07/02 03:04:53;;;;;;;19.52;17.50;;;;;;;17.94;73.52;101303.56;6235136;28;20627;-51
2021/07/02 03:08:15;;;;;;;17.73;15.73;;;;;;;17.95;73.46;101305.28;6235023;28;20224;-51
2021/07/02 03:11:44;;;;;;;16.40;14.25;;;;;;;17.92;73.69;101310.69;6241102;28;20231;-48
2021/07/02 03:15:07;;;;;;;22.25;14.93;;;;;;;18.19;72.66;101312.41;6247862;28;20349;-49
2021/07/02 03:18:28;;;;;;;18.35;16.15;;;;;;;18.17;72.86;101305.47;6257892;28;20256;-50
2021/07/02 03:21:51;;;;;;;20.73;14.80;;;;;;;18.22;72.77;101312.31;6240062;28;20240;-50
2021/07/02 03:25:14;;;;;;;15.57;13.88;;;;;;;18.05;73.53;101315.50;6227663;28;20229;-53
2021/07/02 03:28:36;;;;;;;19.90;15.67;;;;;;;18.00;73.08;101308.66;6257465;28;20319;-51
2021/07/02 03:31:57;;;;;;;18.57;16.17;;;;;;;17.83;73.90;101315.25;6239257;28;20221;-53
2021/07/02 03:35:19;;;;;;;18.00;16.08;;;;;;;18.10;73.02;101325.88;6206971;28;20223;-50
2021/07/02 03:38:42;;;;;;;22.37;16.20;;;;;;;18.29;72.63;101327.00;6230731;28;20283;-51
2021/07/02 03:42:04;;;;;;;19.35;16.10;;;;;;;18.32;72.12;101331.31;6237883;28;20231;-48
2021/07/02 03:45:26;;;;;;;17.93;15.60;;;;;;;18.20;72.36;101335.19;6232563;28;20233;-48
2021/07/02 03:48:47;;;;;;;19.75;15.07;;;;;;;18.05;72.85;101336.56;6233001;28;20228;-50
2021/07/02 03:52:08;;;;;;;18.90;16.48;;;;;;;17.94;73.59;101337.84;6236624;28;20787;-49
2021/07/02 03:55:30;;;;;;;17.95;14.73;;;;;;;17.88;74.11;101342.38;6246703;28;20256;-52
2021/07/02 03:58:51;;;;;;;19.00;15.45;;;;;;;18.02;73.76;101341.09;6242579;28;20286;-50
2021/07/02 04:02:13;;;;;;;19.30;17.25;;;;;;;17.80;73.80;101341.72;6237599;28;20225;-52
2021/07/02 04:05:34;;;;;;;17.35;15.50;;;;;;;18.03;73.13;101342.78;6244639;28;20232;-52
2021/07/02 04:08:55;;;;;;;18.98;16.25;;;;;;;17.98;72.96;101345.56;6258997;28;20244;-52
2021/07/02 04:12:17;;;;;;;18.47;14.27;;;;;;;18.00;72.32;101348.19;6247987;28;20318;-52
2021/07/02 04:15:39;;;;;;;19.38;15.07;;;;;;;17.91;72.60;101351.94;6238877;28;20524;-52
2021/07/02 04:19:00;;;;;;;18.83;15.45;;;;;;;17.90;73.19;101353.72;6244012;28;20516;-51
2021/07/02 04:22:21;;;;;;;22.60;20.20;;;;;;;17.75;73.26;101356.78;6236290;28;20223;-51
2021/07/02 04:25:42;;;;;;;20.80;15.70;;;;;;;17.46;74.49;101368.19;6265534;28;20232;-48
2021/07/02 04:29:05;;;;;;;21.83;18.83;;;;;;;17.92;73.10;101372.13;6253886;28;20235;-48
2021/07/02 04:32:25;;;;;;;20.80;18.43;;;;;;;17.87;73.33;101368.75;6250099;28;20224;-48
2021/07/02 04:35:47;;;;;;;21.77;16.20;;;;;;;17.94;72.95;101364.19;6255427;28;20326;-52
2021/07/02 04:39:08;;;;;;;22.88;15.65;;;;;;;17.67;73.02;101361.44;6259656;28;20247;-49
2021/07/02 04:42:29;;;;;;;16.27;13.88;;;;;;;18.07;71.84;101361.09;6263331;28;20525;-50
2021/07/02 04:45:51;;;;;;;18.30;14.77;;;;;;;18.08;71.40;101361.97;6266245;28;20231;-49
2021/07/02 04:49:12;;;;;;;16.60;14.85;;;;;;;18.31;70.72;101361.22;6260578;28;20311;-48
2021/07/02 04:52:33;;;;;;;19.53;14.90;;;;;;;18.16;71.05;101365.22;6267924;28;20312;-50
2021/07/02 04:55:54;;;;;;;19.58;15.05;;;;;;;18.33;70.37;101364.66;6264626;28;20240;-48
2021/07/02 04:59:16;;;;;;;15.65;13.02;;;;;;;18.28;70.33;101367.47;6262472;28;20227;-49
2021/07/02 05:02:38;;;;;;;16.38;12.90;;;;;;;18.39;69.43;101368.88;6259033;28;20633;-54
2021/07/02 05:06:01;;;;;;;14.50;13.10;;;;;;;18.56;69.06;101368.34;6248208;28;21017;-51
2021/07/02 05:09:23;;;;;;;19.27;13.75;;;;;;;18.39;69.79;101371.53;6229395;28;20233;-47
2021/07/02 05:12:44;;;;;;;17.20;13.98;;;;;;;18.55;69.00;101371.88;6241169;28;20747;-49
2021/07/02 05:16:05;;;;;;;15.93;14.15;;;;;;;18.64;68.86;101375.06;6256470;28;20228;-51
2021/07/02 05:19:27;;;;;;;16.58;14.77;;;;;;;19.10;68.01;101385.84;6250788;28;20220;-48
2021/07/02 05:22:48;;;;;;;15.50;13.95;;;;;;;18.95;67.65;101381.94;6253451;28;20262;-50
2021/07/02 05:26:11;;;;;;;15.77;14.13;;;;;;;18.78;67.99;101379.84;6250292;28;20568;-46
2021/07/02 05:29:33;;;;;;;17.55;12.38;;;;;;;19.15;66.74;101388.31;6234951;28;20526;-47
2021/07/02 05:32:54;;;;;;;15.93;12.82;;;;;;;19.08;67.18;101391.16;6237731;28;20574;-51
2021/07/02 05:36:16;;;;;;;20.90;14.55;;;;;;;18.91;67.34;101384.75;6232727;28;20228;-52
2021/07/02 05:39:37;;;;;;;16.45;12.50;;;;;;;18.57;68.59;101386.75;6235241;28;20224;-50
2021/07/02 05:42:58;;;;;;;13.63;12.43;;;;;;;18.71;68.09;101381.00;6255319;28;20614;-55
2021/07/02 05:46:19;;;;;;;14.77;12.88;;;;;;;18.91;67.14;101390.03;6198186;28;20331;-52
2021/07/02 05:49:39;;;;;;;18.10;11.98;;;;;;;19.20;66.55;101394.28;6241878;28;20232;-52
2021/07/02 05:53:02;;;;;;;14.32;12.90;;;;;;;19.00;66.92;101382.66;6241265;28;20510;-47
2021/07/02 05:56:28;;;;;;;13.85;11.27;;;;;;;19.25;66.25;101387.94;6228182;28;20236;-50
2021/07/02 05:59:49;;;;;;;16.38;14.85;;;;;;;18.50;68.67;101396.63;6235985;28;20248;-50
2021/07/02 06:03:09;;;;;;;17.92;15.38;;;;;;;18.99;67.32;101383.56;6235019;28;20232;-52
2021/07/02 06:06:31;;;;;;;18.30;14.90;;;;;;;19.05;67.33;101393.91;6234921;28;20230;-51
2021/07/02 06:09:53;;;;;;;17.48;14.15;;;;;;;18.84;68.17;101392.00;6235838;28;20236;-53
2021/07/02 06:13:14;;;;;;;19.42;15.90;;;;;;;19.25;66.62;101387.94;6235538;28;20240;-51
2021/07/02 06:16:34;;;;;;;17.70;15.65;;;;;;;18.76;67.03;101400.16;6229147;28;20228;-51
2021/07/02 06:19:55;;;;;;;16.92;14.32;;;;;;;19.18;66.09;101398.75;6249663;28;20246;-52
2021/07/02 06:23:17;;;;;;;14.63;13.13;;;;;;;19.11;66.27;101405.16;6240186;28;21095;-54
2021/07/02 06:26:39;;;;;;;14.77;12.02;;;;;;;19.46;65.64;101401.25;6249490;28;20231;-52
2021/07/02 06:30:00;;;;;;;18.08;13.38;;;;;;;19.35;64.89;101406.06;6235056;28;20331;-53
2021/07/02 06:33:22;;;;;;;14.68;13.13;;;;;;;19.40;65.63;101407.63;6256387;28;20766;-49
2021/07/02 06:36:43;;;;;;;15.65;12.52;;;;;;;19.58;65.45;101402.56;6230330;28;20228;-49
2021/07/02 06:40:06;;;;;;;17.30;13.88;;;;;;;19.38;65.54;101408.59;6235409;28;20244;-52
2021/07/02 06:43:28;;;;;;;18.52;14.07;;;;;;;19.88;64.87;101410.31;6257454;28;20777;-52
2021/07/02 06:46:49;;;;;;;15.43;13.88;;;;;;;19.81;63.56;101412.31;6258895;28;20493;-52
2021/07/02 06:50:11;;;;;;;14.93;11.63;;;;;;;19.93;64.41;101406.56;6241848;28;20575;-52
2021/07/02 06:53:32;;;;;;;15.32;13.55;;;;;;;19.56;64.82;101404.41;6220095;28;20473;-53
2021/07/02 06:57:02;;;;;;;14.38;12.88;;;;;;;19.17;65.38;101407.59;6223922;28;20237;-47
2021/07/02 07:00:25;;;;;;;14.77;13.18;;;;;;;19.33;65.23;101392.94;6221890;28;20236;-51
2021/07/02 07:03:46;;;;;;;13.82;12.52;;;;;;;19.54;64.54;101396.56;6226303;28;20516;-53
2021/07/02 07:07:08;;;;;;;16.40;12.68;;;;;;;20.05;63.50;101392.84;6208030;28;20224;-53
2021/07/02 07:10:31;;;;;;;12.85;11.65;;;;;;;19.88;64.41;101402.38;6222673;28;20353;-52
2021/07/02 07:13:52;;;;;;;14.57;12.57;;;;;;;19.91;63.75;101405.75;6222274;28;20552;-62
2021/07/02 07:17:14;;;;;;;14.45;12.43;;;;;;;20.33;63.10;101406.75;6232630;28;20240;-62
2021/07/02 07:20:35;;;;;;;13.98;12.55;;;;;;;20.42;62.48;101401.94;6248429;28;20259;-62
2021/07/02 07:23:56;;;;;;;15.48;13.85;;;;;;;21.00;61.38;101403.97;6216021;28;20337;-62
2021/07/02 07:27:17;;;;;;;14.77;13.27;;;;;;;20.41;62.31;101396.72;6220592;28;20271;-62
2021/07/02 07:30:38;;;;;;;15.80;13.52;;;;;;;20.50;61.50;101396.34;6228931;28;20224;-63
2021/07/02 07:34:01;;;;;;;13.10;11.80;;;;;;;21.06;59.96;101407.28;6232312;28;20327;-63
2021/07/02 07:37:23;;;;;;;14.38;12.98;;;;;;;20.39;60.79;101394.13;6228721;28;20236;-53
2021/07/02 07:40:44;;;;;;;15.02;13.52;;;;;;;20.26;61.31;101403.50;6218548;28;20274;-53
2021/07/02 07:44:05;;;;;;;15.30;13.23;;;;;;;20.85;60.68;101399.31;6238854;28;20240;-55
2021/07/02 07:47:26;;;;;;;13.82;12.43;;;;;;;20.16;61.72;101410.94;6240616;28;20789;-52
2021/07/02 07:50:51;;;;;;;14.63;12.07;;;;;;;20.89;60.37;101403.56;6260002;28;20248;-52
2021/07/02 07:54:12;;;;;;;15.23;13.00;;;;;;;20.84;59.68;101392.31;6257342;28;20242;-53
2021/07/02 07:57:32;;;;;;;12.88;11.68;;;;;;;20.91;59.90;101396.41;6236052;28;20642;-53
2021/07/02 08:00:53;;;;;;;14.57;13.07;;;;;;;20.68;60.88;101407.13;6237746;28;20744;-51
2021/07/02 08:04:15;;;;;;;15.32;13.90;;;;;;;20.88;60.11;101401.84;6232305;28;20233;-51
2021/07/02 08:07:38;;;;;;;16.65;14.80;;;;;;;20.82;60.89;101404.72;6243370;28;20232;-52
2021/07/02 08:10:59;;;;;;;19.30;17.20;;;;;;;20.06;63.72;101413.09;6243527;28;20517;-54
2021/07/02 08:14:20;;;;;;;16.88;14.85;;;;;;;20.73;61.15;101421.03;6232856;28;20236;-52
2021/07/02 08:17:41;;;;;;;13.63;12.32;;;;;;;20.64;61.90;101417.81;6255886;28;20500;-54
2021/07/02 08:21:02;;;;;;;15.43;13.90;;;;;;;20.50;61.57;101425.44;6252737;28;20255;-52
2021/07/02 08:24:24;;;;;;;13.68;12.27;;;;;;;20.31;62.52;101422.69;6251589;28;20224;-62
2021/07/02 08:31:23;;;;;;;12.85;11.65;;;;;;;21.17;59.51;101421.75;6228854;28;20572;-63
2021/07/02 08:34:44;;;;;;;11.32;10.32;;;;;;;21.31;58.70;101418.50;6245570;28;20613;-63
2021/07/02 08:38:05;;;;;;;12.70;11.20;;;;;;;21.54;57.98;101430.75;6242624;28;20331;-64
2021/07/02 08:41:27;;;;;;;12.57;11.30;;;;;;;21.26;56.98;101415.19;6245621;28;20323;-63
2021/07/02 08:44:49;;;;;;;12.27;10.98;;;;;;;21.51;57.17;101419.44;6250797;28;20240;-62
2021/07/02 08:48:10;;;;;;;11.63;10.45;;;;;;;21.80;55.51;101421.59;6243472;28;20343;-63
2021/07/02 08:51:32;;;;;;;12.05;10.65;;;;;;;21.94;54.71;101422.72;6247379;28;20232;-64
2021/07/02 08:54:53;;;;;;;10.65;9.65;;;;;;;21.83;55.00;101425.91;6251397;28;20532;-63
2021/07/02 08:58:16;;;;;;;13.23;11.73;;;;;;;22.19;54.95;101428.59;6239153;28;20240;-63
2021/07/02 09:01:41;;;;;;;12.07;10.93;;;;;;;22.35;54.07;101427.88;6240161;28;20235;-62
2021/07/02 09:05:26;;;;;;;14.77;12.35;;;;;;;22.22;54.14;101423.13;6249403;28;20525;-63
2021/07/02 09:09:00;;;;;;;13.57;10.82;;;;;;;22.42;53.55;101429.31;6241248;28;20223;-62
2021/07/02 09:12:23;;;;;;;12.90;11.48;;;;;;;22.28;55.27;101432.63;6249735;28;20553;-64
2021/07/02 09:15:47;;;;;;;14.40;13.07;;;;;;;22.06;55.81;101427.44;6232063;28;20232;-64
2021/07/02 09:19:21;;;;;;;16.27;14.77;;;;;;;20.63;60.24;101428.50;6236961;28;20231;-62
2021/07/02 09:22:47;;;;;;;16.17;13.02;;;;;;;21.63;58.37;101434.75;6241602;28;20239;-63
2021/07/02 09:26:08;;;;;;;14.43;12.93;;;;;;;22.62;55.05;101441.56;6249390;28;20323;-61
2021/07/02 09:29:29;;;;;;;18.75;14.77;;;;;;;22.35;55.46;101439.38;6245260;28;20248;-63
2021/07/02 09:32:54;;;;;;;14.98;13.13;;;;;;;22.92;54.34;101447.16;6231309;28;20247;-63
2021/07/02 09:36:27;;;;;;;15.73;14.18;;;;;;;21.37;55.91;101433.25;6229050;28;20292;-63
2021/07/02 09:39:48;;;;;;;12.45;10.73;;;;;;;22.10;53.86;101434.34;6230317;28;20306;-64
2021/07/02 09:43:12;;;;;;;12.65;11.48;;;;;;;22.39;51.99;101440.94;6226603;28;20339;-63
2021/07/02 09:46:35;;;;;;;12.02;10.77;;;;;;;21.90;53.69;101443.22;6235751;28;20228;-62
2021/07/02 09:53:28;;;;;;;13.50;12.23;;;;;;;22.38;52.38;101441.00;6281942;27;20903;-62
2021/07/02 09:56:49;;;;;;;15.07;13.23;;;;;;;21.33;56.72;101444.94;6265517;28;20236;-63
2021/07/02 10:00:11;;;;;;;15.32;12.30;;;;;;;21.21;55.80;101448.97;6261112;28;20602;-64
2021/07/02 10:03:44;;;;;;;14.77;13.18;;;;;;;22.51;52.25;101444.78;6269649;28;20235;-62
2021/07/02 10:07:14;;;;;;;10.77;9.85;;;;;;;22.95;51.67;101444.34;6259233;28;20235;-62
2021/07/02 10:10:37;;;;;;;11.07;9.82;;;;;;;23.17;50.11;101443.28;6265544;28;20306;-64
2021/07/02 10:13:59;;;;;;;11.98;10.88;;;;;;;23.27;49.31;101433.03;6261985;28;20633;-63
2021/07/02 10:17:20;;;;;;;14.73;13.07;;;;;;;22.93;50.21;101448.84;6292327;28;20227;-62
2021/07/02 10:20:43;;;;;;;13.23;11.93;;;;;;;23.23;49.16;101448.25;6285781;28;20219;-63
2021/07/02 10:24:08;;;;;;;11.93;10.73;;;;;;;23.51;49.39;101449.44;6290383;28;20612;-62
2021/07/02 10:27:30;;;;;;;14.48;13.23;;;;;;;22.45;52.88;101460.13;6281866;28;20259;-63
2021/07/02 10:30:52;;;;;;;12.48;11.27;;;;;;;22.60;51.62;101459.38;6289668;28;20746;-53
2021/07/02 10:34:14;;;;;;;11.50;10.40;;;;;;;22.15;53.35;101469.44;6285909;28;20238;-50
2021/07/02 10:37:35;;;;;;;10.57;9.55;;;;;;;22.74;50.76;101456.03;6287402;28;20231;-54
2021/07/02 10:41:08;;;;;;;15.43;9.18;;;;;;;23.07;48.95;101458.81;6284222;28;20269;-52
2021/07/02 10:44:30;;;;;;;9.55;8.65;;;;;;;23.28;48.26;101456.81;6287256;28;20619;-49
2021/07/02 10:47:53;;;;;;;10.23;9.20;;;;;;;23.59;47.26;101452.53;6288483;28;20226;-52
2021/07/02 10:51:42;;;;;;;9.88;8.48;;;;;;;23.87;47.64;101443.13;6292292;28;20251;-51
2021/07/02 10:55:06;;;;;;;9.88;8.88;;;;;;;24.16;46.47;101450.31;6292772;28;20322;-49
2021/07/02 10:58:52;;;;;;;9.73;8.73;;;;;;;23.80;47.04;101447.06;6282401;28;20238;-51
2021/07/02 11:02:18;;;;;;;9.90;9.02;;;;;;;23.46;49.09;101443.50;6278015;28;20266;-50
2021/07/02 11:05:40;;;;;;;10.95;9.98;;;;;;;23.55;49.20;101449.22;6265249;28;20263;-53
2021/07/02 11:09:00;;;;;;;9.50;8.70;;;;;;;23.42;48.85;101447.28;6270405;28;20224;-51
2021/07/02 11:12:22;;;;;;;8.85;8.05;;;;;;;22.66;50.79;101447.59;6273624;28;20247;-52
2021/07/02 11:16:03;;;;;;;9.35;8.50;;;;;;;23.46;49.22;101443.50;6277071;28;20255;-54
2021/07/02 11:19:26;;;;;;;8.85;8.07;;;;;;;23.77;46.80;101438.28;6278287;28;20227;-52
2021/07/02 11:22:49;;;;;;;7.72;7.10;;;;;;;24.42;45.83;101445.31;6268862;28;20314;-52
2021/07/02 11:26:13;;;;;;;8.93;8.13;;;;;;;24.83;45.47;101442.06;6271044;28;20234;-51
2021/07/02 11:29:37;;;;;;;10.15;8.40;;;;;;;23.92;47.00;101436.59;6268036;28;20235;-50
2021/07/02 11:33:00;;;;;;;9.63;8.73;;;;;;;24.18;45.43;101436.94;6275272;28;20269;-50
2021/07/02 11:36:22;;;;;;;8.25;7.55;;;;;;;24.37;42.75;101440.28;6255495;28;20243;-49
2021/07/02 11:39:47;;;;;;;8.68;7.78;;;;;;;24.15;43.22;101445.94;6269012;28;20235;-48
2021/07/02 11:43:10;;;;;;;8.65;7.95;;;;;;;24.98;41.57;101463.44;6273590;28;20854;-51
2021/07/02 11:46:32;;;;;;;8.32;7.47;;;;;;;24.36;42.86;101445.69;6272497;28;20333;-53
2021/07/02 11:49:53;;;;;;;8.70;7.63;;;;;;;24.81;41.96;101446.63;6271327;28;20227;-50
2021/07/02 11:53:29;;;;;;;10.25;7.22;;;;;;;24.98;41.55;101450.13;6264063;28;20227;-54
2021/07/02 11:56:50;;;;;;;7.40;6.72;;;;;;;25.18;42.05;101446.25;6269050;28;20243;-52
2021/07/02 12:00:11;;;;;;;7.40;6.80;;;;;;;24.79;42.83;101445.03;6266004;28;20231;-52
2021/07/02 12:03:36;;;;;;;7.40;6.70;;;;;;;24.71;43.08;101451.66;6271067;28;20237;-49
2021/07/02 12:06:57;;;;;;;8.75;7.25;;;;;;;24.36;44.12;101448.34;6270850;28;20644;-51
2021/07/02 12:10:19;;;;;;;7.97;7.32;;;;;;;24.33;45.20;101445.84;6266709;28;20259;-51
2021/07/02 12:13:40;;;;;;;6.65;6.05;;;;;;;24.31;45.95;101447.72;6270586;28;20595;-53
2021/07/02 12:17:03;;;;;;;8.95;7.85;;;;;;;24.36;45.06;101448.34;6268969;28;20334;-56
2021/07/02 12:20:23;;;;;;;7.72;6.93;;;;;;;23.60;47.63;101454.28;6267405;28;20230;-53
2021/07/02 12:23:44;;;;;;;8.77;7.45;;;;;;;23.91;46.22;101455.31;6271538;28;20242;-55
2021/07/02 12:27:12;;;;;;;12.93;7.05;;;;;;;24.18;45.44;101453.75;6277464;28;20647;-52
2021/07/02 12:30:32;;;;;;;7.38;6.72;;;;;;;25.03;43.59;101453.34;6269610;28;20329;-51
2021/07/02 12:33:54;;;;;;;7.18;6.57;;;;;;;25.07;43.06;101452.25;6272173;28;20987;-51
2021/07/02 12:37:16;;;;;;;6.85;6.25;;;;;;;25.55;42.48;101460.84;6264563;28;20239;-53
2021/07/02 12:40:37;;;;;;;6.65;6.05;;;;;;;24.30;43.89;101459.34;6265043;28;20231;-52
2021/07/02 12:43:59;;;;;;;7.38;6.65;;;;;;;25.45;42.94;101463.25;6271989;28;20223;-67
2021/07/02 12:47:21;;;;;;;5.72;5.22;;;;;;;25.09;42.25;101455.66;6263221;28;20222;-64
2021/07/02 12:50:44;;;;;;;6.40;5.80;;;;;;;25.56;41.82;101454.59;6265788;28;20246;-64
2021/07/02 12:57:54;;;;;;;7.63;5.95;;;;;;;24.89;44.27;101463.03;6270383;28;20235;-64
2021/07/02 13:01:16;;;;;;;7.68;5.72;;;;;;;25.83;41.93;101454.66;6282109;28;20761;-63
2021/07/02 13:04:43;;;;;;;6.50;5.95;;;;;;;25.25;41.93;101461.81;6268650;28;20231;-60
2021/07/02 13:08:05;;;;;;;6.35;5.85;;;;;;;24.91;42.75;101458.47;6270803;28;20271;-50
2021/07/02 13:11:25;;;;;;;7.85;6.30;;;;;;;25.15;42.36;101465.94;6265355;28;20245;-54
2021/07/02 13:14:46;;;;;;;7.38;5.53;;;;;;;25.60;42.12;101472.09;6269152;28;20232;-54
2021/07/02 13:18:19;;;;;;;7.10;6.50;;;;;;;25.32;42.35;101470.31;6271441;28;20231;-54
2021/07/02 13:21:40;;;;;;;7.53;6.43;;;;;;;25.70;42.45;101467.91;6257547;28;20231;-51
2021/07/02 13:25:04;;;;;;;7.40;5.75;;;;;;;26.67;39.57;101468.88;6262629;28;20235;-50
2021/07/02 13:28:25;;;;;;;6.38;5.85;;;;;;;27.49;38.13;101466.84;6245403;28;20230;-52
2021/07/02 13:31:51;;;;;;;7.97;6.03;;;;;;;26.83;39.53;101474.91;6261826;28;20327;-53
2021/07/02 13:35:23;;;;;;;6.68;5.95;;;;;;;27.36;38.57;101456.19;6277521;28;20227;-53
2021/07/02 13:38:58;;;;;;;6.90;6.18;;;;;;;27.58;38.00;101470.72;6257584;28;20317;-49
2021/07/02 13:42:25;;;;;;;6.25;5.72;;;;;;;24.53;43.28;101469.56;6265800;28;20227;-49
2021/07/02 13:46:00;;;;;;;6.60;6.00;;;;;;;25.76;40.88;101471.16;6271593;28;20242;-52
2021/07/02 13:49:21;;;;;;;8.10;5.65;;;;;;;25.67;41.36;101477.94;6270554;28;20232;-48
2021/07/02 13:52:43;;;;;;;6.38;5.38;;;;;;;26.56;39.90;101469.59;6279436;28;20228;-53
2021/07/02 13:56:05;;;;;;;6.70;6.00;;;;;;;27.44;38.44;101461.84;6268160;28;20230;-50
2021/07/02 13:59:26;;;;;;;6.93;6.22;;;;;;;26.92;38.48;101468.94;6281740;28;20222;-49
2021/07/02 14:02:47;;;;;;;10.45;6.53;;;;;;;26.47;40.33;101472.84;6285445;28;20319;-52
2021/07/02 14:06:08;;;;;;;5.78;5.10;;;;;;;26.11;40.04;101464.47;6266968;28;20504;-50
2021/07/02 14:09:30;;;;;;;6.55;5.90;;;;;;;24.92;41.94;101470.00;6274376;28;20313;-49
2021/07/02 14:12:51;;;;;;;6.75;5.93;;;;;;;24.89;42.74;101473.69;6274813;28;20244;-51
2021/07/02 14:16:12;;;;;;;7.35;6.38;;;;;;;25.88;42.51;101473.03;6278407;28;20224;-48
2021/07/02 14:19:33;;;;;;;6.57;5.97;;;;;;;26.11;41.36;101483.16;6256750;28;20231;-48
2021/07/02 14:22:54;;;;;;;13.77;7.60;;;;;;;24.17;45.09;101491.09;6273928;28;20681;-52
2021/07/02 14:26:16;;;;;;;7.60;6.25;;;;;;;24.77;44.53;101483.25;6265871;28;20330;-48
2021/07/02 14:29:37;;;;;;;7.88;5.85;;;;;;;24.71;45.39;101494.25;6265181;28;21033;-53
2021/07/02 14:32:58;;;;;;;7.70;6.22;;;;;;;24.59;46.05;101492.31;6263439;28;20235;-51
2021/07/02 14:36:19;;;;;;;6.80;6.10;;;;;;;24.01;46.96;101495.56;6265448;28;20234;-52
2021/07/02 14:39:40;;;;;;;9.02;6.60;;;;;;;24.22;47.24;101494.38;6272173;28;20227;-51
2021/07/02 14:43:03;;;;;;;13.00;11.70;;;;;;;23.71;49.02;101496.22;6267076;28;20737;-49
2021/07/02 14:46:24;;;;;;;14.20;10.20;;;;;;;23.84;49.11;101496.47;6262210;28;20616;-48
2021/07/02 14:49:45;;;;;;;15.63;14.02;;;;;;;24.04;48.88;101495.38;6267984;28;20231;-51
2021/07/02 14:53:06;;;;;;;8.93;7.55;;;;;;;23.26;50.27;101495.91;6266133;28;20235;-49
2021/07/02 14:56:30;;;;;;;8.95;7.97;;;;;;;23.44;50.19;101501.19;6265519;28;20449;-52
2021/07/02 14:59:52;;;;;;;9.32;8.32;;;;;;;23.39;49.83;101514.75;6263743;28;20231;-50
2021/07/02 15:03:13;;;;;;;10.35;9.25;;;;;;;23.76;49.41;101500.34;6264794;28;20224;-46
2021/07/02 15:06:34;;;;;;;9.68;8.60;;;;;;;23.09;50.74;101507.41;6269623;28;20368;-51
2021/07/02 15:09:55;;;;;;;9.07;8.20;;;;;;;23.46;50.42;101499.31;6264316;28;20224;-53
2021/07/02 15:13:17;;;;;;;7.57;6.75;;;;;;;23.30;50.81;101501.94;6257757;28;20240;-48
2021/07/02 15:16:39;;;;;;;7.88;7.28;;;;;;;23.65;49.24;101502.75;6273744;28;20239;-51
2021/07/02 15:20:00;;;;;;;7.78;6.97;;;;;;;24.60;48.26;101501.16;6274536;28;20227;-51
2021/07/02 15:23:21;;;;;;;9.27;7.60;;;;;;;23.92;49.22;101499.56;6273803;28;20336;-50
2021/07/02 15:26:42;;;;;;;6.95;6.22;;;;;;;23.78;48.42;101503.81;6276411;28;20253;-54
2021/07/02 15:30:40;;;;;;;9.10;6.63;;;;;;;24.24;47.70;101496.94;6258216;28;20231;-52
2021/07/02 15:34:03;;;;;;;7.68;6.57;;;;;;;24.62;46.97;101500.13;6272467;28;20231;-48
2021/07/02 15:37:24;;;;;;;11.23;10.10;;;;;;;24.58;47.54;101508.38;6256177;28;20240;-51
2021/07/02 15:40:45;;;;;;;8.75;6.65;;;;;;;24.83;46.84;101498.00;6275470;28;20240;-52